Terminal Aerodrome Forecast
Issued by NWS

Home | Current Version | Previous Version | Text Only | Print | Product List | Glossary On
Versions: 1 2 3 4 5 6 7 8 9 10 11 12 13 14 15
000
FTUS43 KGRR 191721
TAFJXN
TAF
KJXN 191721Z 1918/2018 22019G24KT P6SM BKN250
     FM192000 22013KT P6SM FEW250 WS020/24040KT
     FM192300 21013KT P6SM SCT250 WS020/24050KT
     FM201200 24009KT P6SM OVC007
     FM201500 24009KT 4SM BR OVC007=

USA.gov is the U.S. government's official web portal to all federal, state and local government web resources and services.